createdAt,value
2023-02-02T00:02:01.099Z,2.90
2023-02-02T00:04:30.130Z,2.87
2023-02-02T00:06:57.704Z,3.07
2023-02-02T00:09:28.833Z,3.90
2023-02-02T00:11:56.330Z,2.70
2023-02-02T00:14:23.573Z,2.63
2023-02-02T00:16:54.553Z,4.83
2023-02-02T00:19:27.640Z,2.50
2023-02-02T00:21:55.458Z,2.83
2023-02-02T00:24:22.985Z,2.90
2023-02-02T00:26:53.811Z,3.10
2023-02-02T00:29:23.280Z,3.57
2023-02-02T00:31:50.367Z,3.00
2023-02-02T00:34:17.640Z,3.50
2023-02-02T00:36:47.865Z,3.90
2023-02-02T00:39:18.522Z,3.77
2023-02-02T00:41:45.693Z,3.90
2023-02-02T00:44:30.816Z,2.90
2023-02-02T00:46:57.357Z,3.73
2023-02-02T00:49:24.068Z,4.90
2023-02-02T00:51:50.924Z,3.87
2023-02-02T00:54:17.531Z,3.00
2023-02-02T00:56:44.248Z,3.70
2023-02-02T00:59:11.500Z,3.00
2023-02-02T01:01:38.191Z,4.27
2023-02-02T01:04:05.622Z,2.87
2023-02-02T01:06:32.168Z,3.40
2023-02-02T01:08:58.711Z,2.83
2023-02-02T01:11:25.767Z,3.70
2023-02-02T01:13:53.573Z,3.03
2023-02-02T01:16:22.406Z,4.53
2023-02-02T01:18:50.750Z,3.13
2023-02-02T01:21:17.388Z,2.77
2023-02-02T01:23:44.426Z,3.20
2023-02-02T01:26:12.330Z,3.20
2023-02-02T01:28:39.434Z,3.20
2023-02-02T01:31:08.880Z,3.70
2023-02-02T01:33:36.185Z,2.60
2023-02-02T01:36:06.890Z,4.10
2023-02-02T01:38:34.006Z,3.80
2023-02-02T01:41:01.386Z,2.80
2023-02-02T01:43:31.193Z,4.50
2023-02-02T01:45:58.859Z,3.93
2023-02-02T01:48:29.541Z,2.80
2023-02-02T01:51:00.477Z,3.20
2023-02-02T01:53:28.282Z,4.50
2023-02-02T01:55:55.284Z,3.20
2023-02-02T01:58:28.146Z,3.67
2023-02-02T02:00:54.822Z,3.90
2023-02-02T02:03:25.046Z,2.77
2023-02-02T02:05:58.568Z,3.73
2023-02-02T02:08:54.862Z,2.63
2023-02-02T02:11:22.563Z,3.47
2023-02-02T02:14:09.350Z,2.77
2023-02-02T02:16:58.339Z,4.07
2023-02-02T02:20:11.826Z,3.57
2023-02-02T02:23:19.274Z,4.00
2023-02-02T02:26:29.699Z,2.40
2023-02-02T02:29:11.600Z,2.87
2023-02-02T02:32:23.542Z,3.07
2023-02-02T02:34:56.270Z,2.00
2023-02-02T02:37:33.455Z,3.60
2023-02-02T02:40:08.401Z,2.57
2023-02-02T02:42:41.643Z,3.37
2023-02-02T02:45:11.382Z,2.90
2023-02-02T02:47:39.206Z,2.70
2023-02-02T02:50:06.425Z,2.30
2023-02-02T02:52:34.850Z,2.80
2023-02-02T02:55:03.016Z,3.23
2023-02-02T02:57:54.433Z,4.17
2023-02-02T03:01:02.626Z,3.33
2023-02-02T03:03:41.940Z,3.70
2023-02-02T03:06:21.578Z,3.00
2023-02-02T03:09:06.389Z,3.40
2023-02-02T03:11:34.995Z,3.07
2023-02-02T03:14:01.935Z,3.60
2023-02-02T03:16:28.436Z,3.93
2023-02-02T03:18:56.077Z,3.33
2023-02-02T03:21:23.072Z,2.77
2023-02-02T03:23:49.636Z,5.17
2023-02-02T03:26:16.646Z,3.20
2023-02-02T03:28:43.629Z,3.40
2023-02-02T03:31:10.256Z,3.10
2023-02-02T03:33:37.938Z,3.27
2023-02-02T03:36:05.661Z,3.10
2023-02-02T03:38:32.141Z,3.70
2023-02-02T03:40:58.665Z,4.07
2023-02-02T03:43:25.332Z,2.77
2023-02-02T03:46:00.234Z,2.70
2023-02-02T03:48:27.656Z,3.80
2023-02-02T03:50:54.290Z,2.70
2023-02-02T03:53:21.289Z,2.50
2023-02-02T03:55:47.776Z,4.00
2023-02-02T03:58:14.655Z,3.13
2023-02-02T04:00:41.325Z,2.60
2023-02-02T04:03:07.877Z,2.87
2023-02-02T04:05:34.436Z,2.73
2023-02-02T04:08:01.568Z,3.30
2023-02-02T04:10:28.067Z,2.80
2023-02-02T04:12:54.607Z,2.73
2023-02-02T04:15:21.163Z,4.03
2023-02-02T04:17:47.659Z,3.10
2023-02-02T04:20:14.250Z,3.03
2023-02-02T04:22:40.752Z,2.63
2023-02-02T04:25:07.607Z,2.50
2023-02-02T04:27:34.228Z,3.60
2023-02-02T04:30:00.870Z,3.70
2023-02-02T04:32:27.374Z,2.40
2023-02-02T04:34:53.862Z,3.70
2023-02-02T04:37:20.433Z,3.90
2023-02-02T04:39:48.324Z,3.53
2023-02-02T04:42:14.810Z,3.73
2023-02-02T04:44:41.573Z,2.20
2023-02-02T04:47:08.077Z,3.23
2023-02-02T04:49:34.580Z,2.73
2023-02-02T04:52:01.265Z,3.23
2023-02-02T04:54:27.785Z,3.57
2023-02-02T04:56:54.429Z,2.80
2023-02-02T04:59:21.032Z,3.13
2023-02-02T05:01:48.187Z,3.00
2023-02-02T05:04:14.701Z,3.60
2023-02-02T05:06:41.571Z,3.70
2023-02-02T05:09:08.551Z,3.17
2023-02-02T05:11:35.475Z,4.23
2023-02-02T05:14:01.969Z,4.00
2023-02-02T05:16:29.327Z,3.40
2023-02-02T05:18:56.882Z,3.90
2023-02-02T05:21:23.734Z,3.77
2023-02-02T05:23:50.415Z,2.50
2023-02-02T05:26:22.103Z,2.63
2023-02-02T05:28:49.118Z,3.27
2023-02-02T05:31:15.794Z,3.00
2023-02-02T05:33:42.623Z,3.63
2023-02-02T05:36:09.376Z,4.17
2023-02-02T05:38:36.492Z,3.27
2023-02-02T05:41:03.878Z,3.73
2023-02-02T05:43:32.047Z,2.70
2023-02-02T05:45:59.036Z,3.07
2023-02-02T05:48:26.016Z,4.10
2023-02-02T05:51:21.345Z,3.77
2023-02-02T05:53:47.893Z,3.23
2023-02-02T05:56:15.713Z,2.80
2023-02-02T05:58:43.174Z,3.20
2023-02-02T06:01:10.031Z,5.23
2023-02-02T06:03:36.594Z,3.80
2023-02-02T06:06:04.882Z,2.57
2023-02-02T06:08:33.154Z,3.67
2023-02-02T06:10:59.649Z,3.17
2023-02-02T06:13:26.243Z,3.67
2023-02-02T06:15:52.931Z,3.70
2023-02-02T06:18:19.462Z,3.70
2023-02-02T06:20:46.973Z,3.77
2023-02-02T06:23:13.494Z,4.60
2023-02-02T06:25:40.017Z,4.23
2023-02-02T06:28:07.668Z,3.10
2023-02-02T06:30:34.276Z,4.80
2023-02-02T06:33:00.821Z,3.53
2023-02-02T06:35:27.682Z,4.10
2023-02-02T06:37:54.623Z,5.10
2023-02-02T06:40:21.130Z,3.30
2023-02-02T06:42:47.624Z,5.00
2023-02-02T06:45:14.619Z,4.00
2023-02-02T06:47:41.595Z,4.07
2023-02-02T06:50:09.303Z,3.53
2023-02-02T06:52:36.208Z,3.10
2023-02-02T06:55:02.699Z,3.30
2023-02-02T06:57:29.264Z,3.57
2023-02-02T06:59:56.429Z,3.73
2023-02-02T07:02:23.343Z,3.30
2023-02-02T07:04:49.901Z,3.67
2023-02-02T07:07:16.441Z,3.30
2023-02-02T07:09:43.103Z,2.53
2023-02-02T07:12:09.633Z,3.60
2023-02-02T07:14:36.141Z,3.00
2023-02-02T07:17:02.839Z,3.83
2023-02-02T07:19:29.593Z,3.07
2023-02-02T07:21:56.104Z,3.20
2023-02-02T07:24:22.689Z,3.90
2023-02-02T07:26:49.264Z,3.37
2023-02-02T07:29:15.777Z,3.33
2023-02-02T07:31:42.766Z,3.60
2023-02-02T07:34:09.406Z,2.90
2023-02-02T07:36:36.241Z,3.07
2023-02-02T07:39:05.100Z,4.67
2023-02-02T07:41:33.453Z,3.83
2023-02-02T07:44:00.035Z,4.70
2023-02-02T07:46:26.626Z,3.53
2023-02-02T07:48:55.562Z,3.00
2023-02-02T07:51:22.610Z,3.57
2023-02-02T07:53:51.501Z,3.50
2023-02-02T07:56:23.817Z,3.57
2023-02-02T07:58:55.537Z,3.40
2023-02-02T08:01:23.770Z,3.67
2023-02-02T08:03:50.565Z,4.83
2023-02-02T08:06:23.241Z,3.07
2023-02-02T08:08:50.950Z,3.80
2023-02-02T08:11:20.277Z,3.70
2023-02-02T08:13:52.560Z,4.00
2023-02-02T08:16:19.904Z,3.00
2023-02-02T08:18:46.984Z,4.30
2023-02-02T08:21:14.481Z,3.03
2023-02-02T08:23:41.708Z,3.40
2023-02-02T08:26:17.917Z,3.20
2023-02-02T08:28:47.404Z,4.37
2023-02-02T08:31:21.529Z,4.20
2023-02-02T08:33:48.728Z,4.20
2023-02-02T08:36:19.943Z,4.17
2023-02-02T08:38:46.804Z,4.57
2023-02-02T08:41:16.303Z,4.97
2023-02-02T08:43:43.384Z,3.57
2023-02-02T08:46:11.726Z,5.07
2023-02-02T08:48:38.791Z,5.70
2023-02-02T08:51:07.336Z,4.07
2023-02-02T08:53:34.696Z,4.63
2023-02-02T08:56:07.339Z,4.60
2023-02-02T08:58:34.801Z,3.83
2023-02-02T09:01:12.912Z,4.10
2023-02-02T09:03:40.335Z,2.90
2023-02-02T09:06:08.631Z,3.00
2023-02-02T09:08:35.215Z,4.13
2023-02-02T09:11:10.198Z,3.10
2023-02-02T09:13:38.484Z,5.10
2023-02-02T09:16:08.252Z,2.70
2023-02-02T09:18:34.805Z,4.30
2023-02-02T09:21:04.515Z,2.70
2023-02-02T09:23:32.579Z,4.30
2023-02-02T09:26:19.028Z,3.37
2023-02-02T09:28:48.641Z,3.90
2023-02-02T09:31:15.594Z,4.33
2023-02-02T09:33:42.897Z,4.27
2023-02-02T09:36:21.483Z,3.50
2023-02-02T09:38:49.705Z,5.53
2023-02-02T09:41:37.675Z,3.20
2023-02-02T09:44:22.277Z,3.50
2023-02-02T09:47:12.383Z,3.97
2023-02-02T09:49:54.154Z,3.80
2023-02-02T09:52:27.715Z,4.00
2023-02-02T09:55:10.861Z,3.93
2023-02-02T09:57:43.255Z,3.40
2023-02-02T10:00:33.688Z,4.20
2023-02-02T10:03:12.090Z,4.23
2023-02-02T10:06:06.239Z,4.50
2023-02-02T10:08:42.515Z,3.40
2023-02-02T10:11:27.077Z,4.40
2023-02-02T10:13:58.542Z,5.27
2023-02-02T10:16:25.445Z,6.10
2023-02-02T10:19:05.085Z,6.03
2023-02-02T10:21:46.489Z,4.67
2023-02-02T10:24:20.207Z,6.67
2023-02-02T10:26:50.534Z,3.60
2023-02-02T10:29:47.977Z,4.40
2023-02-02T10:32:34.030Z,4.97
2023-02-02T10:35:20.053Z,4.40
2023-02-02T10:38:21.066Z,3.90
2023-02-02T10:41:17.773Z,3.47
2023-02-02T10:44:09.035Z,3.00
2023-02-02T10:46:40.486Z,4.03
2023-02-02T10:49:06.978Z,2.97
2023-02-02T10:51:34.112Z,4.17
2023-02-02T10:54:05.121Z,3.77
2023-02-02T10:56:37.573Z,4.60
2023-02-02T10:59:14.122Z,3.40
2023-02-02T11:01:41.037Z,3.60
2023-02-02T11:04:29.534Z,4.10
2023-02-02T11:06:56.358Z,3.93
2023-02-02T11:09:32.353Z,3.70
2023-02-02T11:12:13.807Z,3.07
2023-02-02T11:14:49.520Z,3.57
2023-02-02T11:17:22.343Z,3.90
2023-02-02T11:19:50.000Z,3.40
2023-02-02T11:22:46.306Z,3.50
2023-02-02T11:25:32.403Z,2.80
2023-02-02T11:27:58.972Z,2.67
2023-02-02T11:30:35.500Z,2.53
2023-02-02T11:33:20.827Z,2.90
2023-02-02T11:35:54.194Z,4.27
2023-02-02T11:38:21.618Z,4.23
2023-02-02T11:41:03.705Z,4.33
2023-02-02T11:43:36.294Z,3.00
2023-02-02T11:46:05.812Z,3.20
2023-02-02T11:48:39.704Z,3.07
2023-02-02T11:51:09.989Z,3.37
2023-02-02T11:54:05.968Z,3.20
2023-02-02T11:56:35.171Z,2.60
2023-02-02T11:59:03.902Z,2.77
2023-02-02T12:01:39.826Z,3.20
2023-02-02T12:04:15.801Z,2.90
2023-02-02T12:06:42.414Z,3.20
2023-02-02T12:09:21.531Z,3.00
2023-02-02T12:12:02.926Z,3.80
2023-02-02T12:14:41.890Z,3.50
2023-02-02T12:17:14.548Z,3.97
2023-02-02T12:19:59.296Z,3.70
2023-02-02T12:22:45.991Z,4.53
2023-02-02T12:25:51.802Z,2.83
2023-02-02T12:28:39.196Z,4.00
2023-02-02T12:31:26.541Z,2.93
2023-02-02T12:34:17.089Z,2.83
2023-02-02T12:36:56.942Z,2.17
2023-02-02T12:39:47.514Z,2.60
2023-02-02T12:42:25.715Z,2.60
2023-02-02T12:45:23.893Z,2.90
2023-02-02T12:48:21.676Z,3.17
2023-02-02T12:51:06.270Z,3.30
2023-02-02T12:54:32.600Z,2.30
2023-02-02T12:56:52.060Z,4.40
2023-02-02T12:59:30.500Z,2.80
2023-02-02T13:02:05.154Z,2.30
2023-02-02T13:04:59.845Z,3.47
2023-02-02T13:07:43.978Z,2.30
2023-02-02T13:10:21.670Z,2.77
2023-02-02T13:13:09.505Z,3.23
2023-02-02T13:15:40.056Z,2.20
2023-02-02T13:18:14.766Z,2.30
2023-02-02T13:20:45.666Z,2.60
2023-02-02T13:23:27.309Z,2.90
2023-02-02T13:26:01.201Z,2.00
2023-02-02T13:28:36.401Z,2.70
2023-02-02T13:31:09.794Z,2.30
2023-02-02T13:33:37.950Z,2.93
2023-02-02T13:36:25.608Z,2.23
2023-02-02T13:38:58.399Z,4.03
2023-02-02T13:41:26.108Z,2.90
2023-02-02T13:44:13.646Z,2.97
2023-02-02T13:46:51.486Z,2.40
2023-02-02T13:49:24.374Z,2.47
2023-02-02T13:51:57.586Z,1.27
2023-02-02T13:54:47.742Z,2.60
2023-02-02T13:57:35.906Z,2.07
2023-02-02T14:00:25.662Z,1.93
2023-02-02T14:03:03.740Z,2.20
2023-02-02T14:05:34.749Z,2.07
2023-02-02T14:08:06.712Z,2.40
2023-02-02T14:10:39.796Z,2.50
2023-02-02T14:13:32.315Z,1.70
2023-02-02T14:16:01.943Z,2.10
2023-02-02T14:18:50.755Z,2.20
2023-02-02T14:21:32.627Z,2.53
2023-02-02T14:24:02.958Z,2.10
2023-02-02T14:26:46.431Z,2.13
2023-02-02T14:29:31.464Z,2.77
2023-02-02T14:32:00.077Z,2.93
2023-02-02T14:34:30.597Z,1.90
2023-02-02T14:37:24.881Z,2.57
2023-02-02T14:39:57.380Z,2.03
2023-02-02T14:42:58.966Z,2.87
2023-02-02T14:45:39.262Z,2.33
2023-02-02T14:48:22.462Z,2.60
2023-02-02T14:50:55.856Z,4.43
2023-02-02T14:53:37.609Z,2.60
2023-02-02T14:56:09.533Z,2.90
2023-02-02T14:58:39.938Z,3.73
2023-02-02T15:01:25.043Z,3.03
2023-02-02T15:04:00.447Z,3.23
2023-02-02T15:06:34.218Z,2.87
2023-02-02T15:09:19.469Z,2.17
2023-02-02T15:12:04.419Z,3.03
2023-02-02T15:15:02.180Z,2.33
2023-02-02T15:17:41.575Z,2.67
2023-02-02T15:20:22.808Z,2.30
2023-02-02T15:23:22.681Z,3.40
2023-02-02T15:25:59.167Z,2.67
2023-02-02T15:28:47.088Z,3.43
2023-02-02T15:31:34.909Z,3.47
2023-02-02T15:34:10.054Z,3.63
2023-02-02T15:36:42.116Z,3.60
2023-02-02T15:39:19.361Z,2.70
2023-02-02T15:41:49.629Z,3.00
2023-02-02T15:44:21.739Z,2.40
2023-02-02T15:46:49.198Z,3.77
2023-02-02T15:49:31.706Z,2.93
2023-02-02T15:52:03.207Z,2.90
2023-02-02T15:54:35.079Z,5.93
2023-02-02T15:57:02.838Z,3.63
2023-02-02T15:59:38.865Z,3.60
2023-02-02T16:02:08.152Z,3.20
2023-02-02T16:04:37.293Z,3.07
2023-02-02T16:07:06.699Z,3.10
2023-02-02T16:09:35.617Z,3.37
2023-02-02T16:12:05.168Z,3.00
2023-02-02T16:14:36.134Z,3.13
2023-02-02T16:17:23.896Z,4.47
2023-02-02T16:19:56.918Z,5.80
2023-02-02T16:22:25.324Z,5.37
2023-02-02T16:24:55.669Z,4.93
2023-02-02T16:27:26.701Z,4.53
2023-02-02T16:29:56.633Z,4.17
2023-02-02T16:32:29.945Z,2.83
2023-02-02T16:34:57.165Z,7.20
2023-02-02T16:37:29.415Z,6.17
2023-02-02T16:39:58.082Z,5.13
2023-02-02T16:42:31.688Z,5.03
2023-02-02T16:44:59.832Z,3.60
2023-02-02T16:47:26.437Z,4.27
2023-02-02T16:50:14.576Z,5.10
2023-02-02T16:53:02.775Z,5.10
2023-02-02T16:55:47.994Z,5.20
2023-02-02T16:58:22.894Z,4.00
2023-02-02T17:01:13.995Z,3.93
2023-02-02T17:03:49.106Z,3.80
2023-02-02T17:06:15.648Z,3.53
2023-02-02T17:08:42.144Z,3.83
2023-02-02T17:11:25.397Z,3.50
2023-02-02T17:13:53.681Z,3.50
2023-02-02T17:16:22.921Z,4.30
2023-02-02T17:18:50.964Z,4.10
2023-02-02T17:21:21.126Z,4.43
2023-02-02T17:23:51.441Z,4.07
2023-02-02T17:26:18.185Z,5.57
2023-02-02T17:28:44.729Z,3.67
2023-02-02T17:31:16.327Z,3.50
2023-02-02T17:33:43.528Z,5.57
2023-02-02T17:36:13.125Z,5.33
2023-02-02T17:38:39.874Z,5.30
2023-02-02T17:41:07.063Z,4.47
2023-02-02T17:43:33.580Z,2.90
2023-02-02T17:46:00.161Z,4.30
2023-02-02T17:48:27.063Z,4.30
2023-02-02T17:50:53.706Z,4.93
2023-02-02T17:53:21.851Z,4.13
2023-02-02T17:55:50.252Z,3.57
2023-02-02T17:58:17.862Z,3.93
2023-02-02T18:00:47.807Z,3.27
2023-02-02T18:03:24.823Z,3.17
2023-02-02T18:05:52.109Z,2.80
2023-02-02T18:08:19.303Z,3.20
2023-02-02T18:10:46.594Z,3.17
2023-02-02T18:13:19.237Z,3.80
2023-02-02T18:15:46.425Z,3.30
2023-02-02T18:18:13.106Z,3.53
2023-02-02T18:20:43.696Z,3.20
2023-02-02T18:23:11.025Z,4.43
2023-02-02T18:25:39.413Z,4.63
2023-02-02T18:28:07.458Z,5.00
2023-02-02T18:30:34.539Z,4.40
2023-02-02T18:33:01.223Z,7.87
2023-02-02T18:35:28.312Z,18.00
2023-02-02T18:37:54.929Z,6.60
2023-02-02T18:40:21.462Z,4.73
2023-02-02T18:42:48.718Z,3.40
2023-02-02T18:45:15.267Z,3.20
2023-02-02T18:47:41.787Z,5.70
2023-02-02T18:50:08.929Z,4.10
2023-02-02T18:52:35.530Z,3.47
2023-02-02T18:55:02.330Z,3.10
2023-02-02T18:57:30.414Z,3.70
2023-02-02T18:59:56.931Z,3.17
2023-02-02T19:02:25.383Z,3.37
2023-02-02T19:05:10.622Z,2.97
2023-02-02T19:07:55.941Z,3.43
2023-02-02T19:10:27.204Z,3.83
2023-02-02T19:13:09.853Z,2.63
2023-02-02T19:15:39.246Z,2.67
2023-02-02T19:18:13.707Z,3.50
2023-02-02T19:20:40.665Z,3.23
2023-02-02T19:23:12.935Z,3.03
2023-02-02T19:25:41.019Z,3.60
2023-02-02T19:28:23.595Z,3.27
2023-02-02T19:30:53.964Z,3.60
2023-02-02T19:33:21.012Z,4.57
2023-02-02T19:35:51.571Z,3.93
2023-02-02T19:38:21.236Z,3.50
2023-02-02T19:40:47.995Z,3.80
2023-02-02T19:43:26.975Z,3.37
2023-02-02T19:45:56.376Z,4.00
2023-02-02T19:48:27.896Z,4.60
2023-02-02T19:50:55.735Z,4.20
2023-02-02T19:53:25.159Z,3.80
2023-02-02T19:55:52.743Z,3.93
2023-02-02T19:58:21.125Z,3.63
2023-02-02T20:00:50.198Z,3.23
2023-02-02T20:03:27.256Z,3.20
2023-02-02T20:05:57.339Z,3.90
2023-02-02T20:08:31.841Z,3.37
2023-02-02T20:11:00.784Z,2.97
2023-02-02T20:13:47.914Z,3.40
2023-02-02T20:16:18.468Z,3.70
2023-02-02T20:18:48.778Z,4.03
2023-02-02T20:21:22.502Z,4.13
2023-02-02T20:23:49.219Z,4.30
2023-02-02T20:26:28.973Z,3.60
2023-02-02T20:28:58.610Z,3.07
2023-02-02T20:31:34.507Z,3.70
2023-02-02T20:34:01.591Z,3.73
2023-02-02T20:36:40.591Z,3.93
2023-02-02T20:39:31.913Z,5.17
2023-02-02T20:41:59.461Z,4.80
2023-02-02T20:44:28.678Z,3.93
2023-02-02T20:46:56.580Z,3.30
2023-02-02T20:49:25.480Z,3.80
2023-02-02T20:51:54.416Z,4.27
2023-02-02T20:54:21.293Z,2.90
2023-02-02T20:56:48.015Z,2.67
2023-02-02T20:59:14.651Z,4.50
2023-02-02T21:01:41.723Z,3.93
2023-02-02T21:04:08.868Z,3.23
2023-02-02T21:06:37.519Z,4.47
2023-02-02T21:09:05.594Z,3.17
2023-02-02T21:11:32.126Z,3.57
2023-02-02T21:13:59.873Z,2.73
2023-02-02T21:16:26.520Z,3.17
2023-02-02T21:18:53.423Z,3.13
2023-02-02T21:21:22.462Z,5.10
2023-02-02T21:23:51.977Z,2.90
2023-02-02T21:26:22.280Z,3.37
2023-02-02T21:28:49.357Z,2.93
2023-02-02T21:31:17.123Z,2.83
2023-02-02T21:33:47.873Z,3.63
2023-02-02T21:36:15.762Z,2.90
2023-02-02T21:38:42.274Z,2.80
2023-02-02T21:41:14.145Z,3.47
2023-02-02T21:43:41.414Z,3.40
2023-02-02T21:46:17.860Z,3.50
2023-02-02T21:48:45.919Z,4.97
2023-02-02T21:51:32.113Z,5.03
2023-02-02T21:53:59.196Z,4.23
2023-02-02T21:56:28.468Z,3.27
2023-02-02T21:58:59.211Z,4.00
2023-02-02T22:01:34.624Z,3.60
2023-02-02T22:04:01.282Z,3.93
2023-02-02T22:06:30.826Z,3.70
2023-02-02T22:09:12.405Z,4.40
2023-02-02T22:11:55.820Z,4.27
2023-02-02T22:14:37.085Z,4.60
2023-02-02T22:17:20.701Z,4.60
2023-02-02T22:19:47.980Z,4.47
2023-02-02T22:22:23.356Z,5.40
2023-02-02T22:24:59.982Z,5.00
2023-02-02T22:27:40.675Z,5.40
2023-02-02T22:30:20.859Z,6.00
2023-02-02T22:32:47.480Z,6.47
2023-02-02T22:35:14.236Z,8.37
2023-02-02T22:37:40.757Z,7.53
2023-02-02T22:40:08.421Z,7.03
2023-02-02T22:42:34.922Z,7.93
2023-02-02T22:45:01.447Z,8.73
2023-02-02T22:47:28.012Z,9.13
2023-02-02T22:49:54.507Z,9.40
2023-02-02T22:52:21.237Z,9.80
2023-02-02T22:54:47.725Z,10.63
2023-02-02T22:57:14.765Z,11.20
2023-02-02T22:59:41.318Z,12.20
2023-02-02T23:02:07.909Z,11.33
2023-02-02T23:04:34.411Z,10.83
2023-02-02T23:07:00.985Z,12.60
2023-02-02T23:09:27.465Z,12.70
2023-02-02T23:11:53.959Z,12.50
2023-02-02T23:14:20.449Z,13.03
2023-02-02T23:16:47.079Z,13.30
2023-02-02T23:19:13.621Z,12.50
2023-02-02T23:21:40.384Z,13.50
2023-02-02T23:24:07.381Z,13.03
2023-02-02T23:26:33.938Z,13.13
2023-02-02T23:29:00.795Z,13.10
2023-02-02T23:31:27.387Z,12.83
2023-02-02T23:33:53.984Z,12.50
2023-02-02T23:36:20.505Z,13.33
2023-02-02T23:38:47.013Z,11.30
2023-02-02T23:41:13.664Z,12.33
2023-02-02T23:43:42.920Z,11.90
2023-02-02T23:46:10.998Z,12.37
2023-02-02T23:48:37.830Z,12.83
2023-02-02T23:51:04.417Z,13.80
2023-02-02T23:53:30.933Z,12.70
2023-02-02T23:55:57.548Z,14.23
2023-02-02T23:58:24.071Z,14.87
